sensor_id;sensor_type;location;lat;lon;timestamp;P1;durP1;ratioP1;P2;durP2;ratioP2
10823;SDS011;39116;59.332;18.034;2022-08-19T00:02:23;24.92;;;16.80;;
10823;SDS011;39116;59.332;18.034;2022-08-19T00:04:50;20.35;;;16.25;;
10823;SDS011;39116;59.332;18.034;2022-08-19T00:07:17;20.90;;;16.30;;
10823;SDS011;39116;59.332;18.034;2022-08-19T00:09:44;21.13;;;16.77;;
10823;SDS011;39116;59.332;18.034;2022-08-19T00:12:12;21.25;;;17.17;;
10823;SDS011;39116;59.332;18.034;2022-08-19T00:14:38;23.13;;;17.45;;
10823;SDS011;39116;59.332;18.034;2022-08-19T00:17:06;20.80;;;17.10;;
10823;SDS011;39116;59.332;18.034;2022-08-19T00:19:33;23.58;;;17.48;;
10823;SDS011;39116;59.332;18.034;2022-08-19T00:22:00;24.30;;;18.15;;
10823;SDS011;39116;59.332;18.034;2022-08-19T00:24:27;27.75;;;18.33;;
10823;SDS011;39116;59.332;18.034;2022-08-19T00:26:54;27.05;;;19.45;;
10823;SDS011;39116;59.332;18.034;2022-08-19T00:29:23;24.45;;;17.83;;
10823;SDS011;39116;59.332;18.034;2022-08-19T00:31:50;26.23;;;19.95;;
10823;SDS011;39116;59.332;18.034;2022-08-19T00:34:18;26.75;;;18.40;;
10823;SDS011;39116;59.332;18.034;2022-08-19T00:36:45;25.88;;;19.30;;
10823;SDS011;39116;59.332;18.034;2022-08-19T00:39:11;30.45;;;20.05;;
10823;SDS011;39116;59.332;18.034;2022-08-19T00:41:38;27.80;;;19.42;;
10823;SDS011;39116;59.332;18.034;2022-08-19T00:44:06;25.27;;;19.00;;
10823;SDS011;39116;59.332;18.034;2022-08-19T00:46:34;24.70;;;19.42;;
10823;SDS011;39116;59.332;18.034;2022-08-19T00:49:02;24.60;;;18.38;;
10823;SDS011;39116;59.332;18.034;2022-08-19T00:51:31;24.27;;;19.20;;
10823;SDS011;39116;59.332;18.034;2022-08-19T00:53:59;25.48;;;19.20;;
10823;SDS011;39116;59.332;18.034;2022-08-19T00:56:26;24.08;;;18.00;;
10823;SDS011;39116;59.332;18.034;2022-08-19T00:58:53;24.27;;;18.15;;
10823;SDS011;39116;59.332;18.034;2022-08-19T01:01:20;25.85;;;19.08;;
10823;SDS011;39116;59.332;18.034;2022-08-19T01:03:48;24.35;;;19.00;;
10823;SDS011;39116;59.332;18.034;2022-08-19T01:06:15;23.77;;;18.58;;
10823;SDS011;39116;59.332;18.034;2022-08-19T01:08:41;23.42;;;18.33;;
10823;SDS011;39116;59.332;18.034;2022-08-19T01:11:08;22.10;;;18.05;;
10823;SDS011;39116;59.332;18.034;2022-08-19T01:13:34;23.70;;;18.42;;
10823;SDS011;39116;59.332;18.034;2022-08-19T01:16:02;19.50;;;16.63;;
10823;SDS011;39116;59.332;18.034;2022-08-19T01:18:29;24.48;;;19.08;;
10823;SDS011;39116;59.332;18.034;2022-08-19T01:20:58;23.63;;;19.45;;
10823;SDS011;39116;59.332;18.034;2022-08-19T01:23:28;24.00;;;19.45;;
10823;SDS011;39116;59.332;18.034;2022-08-19T01:26:08;22.85;;;18.90;;
10823;SDS011;39116;59.332;18.034;2022-08-19T01:28:35;20.60;;;17.67;;
10823;SDS011;39116;59.332;18.034;2022-08-19T01:31:03;23.83;;;18.77;;
10823;SDS011;39116;59.332;18.034;2022-08-19T01:33:29;22.23;;;18.88;;
10823;SDS011;39116;59.332;18.034;2022-08-19T01:36:02;21.52;;;19.20;;
10823;SDS011;39116;59.332;18.034;2022-08-19T01:38:30;22.17;;;18.52;;
10823;SDS011;39116;59.332;18.034;2022-08-19T01:40:57;23.13;;;19.23;;
10823;SDS011;39116;59.332;18.034;2022-08-19T01:43:24;22.60;;;19.23;;
10823;SDS011;39116;59.332;18.034;2022-08-19T01:45:51;26.60;;;21.08;;
10823;SDS011;39116;59.332;18.034;2022-08-19T01:48:20;22.30;;;19.77;;
10823;SDS011;39116;59.332;18.034;2022-08-19T01:50:47;24.17;;;20.02;;
10823;SDS011;39116;59.332;18.034;2022-08-19T01:53:14;25.20;;;20.52;;
10823;SDS011;39116;59.332;18.034;2022-08-19T01:55:42;25.17;;;19.67;;
10823;SDS011;39116;59.332;18.034;2022-08-19T01:58:10;24.13;;;19.75;;
10823;SDS011;39116;59.332;18.034;2022-08-19T02:00:37;26.38;;;21.38;;
10823;SDS011;39116;59.332;18.034;2022-08-19T02:03:04;24.55;;;20.98;;
10823;SDS011;39116;59.332;18.034;2022-08-19T02:05:31;29.35;;;22.48;;
10823;SDS011;39116;59.332;18.034;2022-08-19T02:07:57;30.40;;;22.17;;
10823;SDS011;39116;59.332;18.034;2022-08-19T02:10:24;25.15;;;21.77;;
10823;SDS011;39116;59.332;18.034;2022-08-19T02:12:52;24.08;;;21.48;;
10823;SDS011;39116;59.332;18.034;2022-08-19T02:15:19;25.35;;;20.83;;
10823;SDS011;39116;59.332;18.034;2022-08-19T02:17:47;25.33;;;21.13;;
10823;SDS011;39116;59.332;18.034;2022-08-19T02:20:13;23.50;;;20.80;;
10823;SDS011;39116;59.332;18.034;2022-08-19T02:22:40;25.30;;;21.83;;
10823;SDS011;39116;59.332;18.034;2022-08-19T02:25:08;27.70;;;21.02;;
10823;SDS011;39116;59.332;18.034;2022-08-19T02:27:35;24.65;;;21.25;;
10823;SDS011;39116;59.332;18.034;2022-08-19T02:30:04;26.77;;;21.45;;
10823;SDS011;39116;59.332;18.034;2022-08-19T02:32:31;30.75;;;22.10;;
10823;SDS011;39116;59.332;18.034;2022-08-19T02:34:58;26.75;;;20.95;;
10823;SDS011;39116;59.332;18.034;2022-08-19T02:37:24;28.48;;;21.92;;
10823;SDS011;39116;59.332;18.034;2022-08-19T02:40:09;24.25;;;21.67;;
10823;SDS011;39116;59.332;18.034;2022-08-19T02:42:35;27.50;;;22.60;;
10823;SDS011;39116;59.332;18.034;2022-08-19T02:45:04;28.52;;;21.27;;
10823;SDS011;39116;59.332;18.034;2022-08-19T02:47:31;25.65;;;21.27;;
10823;SDS011;39116;59.332;18.034;2022-08-19T02:49:57;28.58;;;21.63;;
10823;SDS011;39116;59.332;18.034;2022-08-19T02:52:23;27.88;;;21.65;;
10823;SDS011;39116;59.332;18.034;2022-08-19T02:54:50;25.88;;;22.20;;
10823;SDS011;39116;59.332;18.034;2022-08-19T02:57:17;24.67;;;21.70;;
10823;SDS011;39116;59.332;18.034;2022-08-19T02:59:43;26.45;;;21.58;;
10823;SDS011;39116;59.332;18.034;2022-08-19T03:02:11;26.58;;;21.48;;
10823;SDS011;39116;59.332;18.034;2022-08-19T03:04:37;26.27;;;21.63;;
10823;SDS011;39116;59.332;18.034;2022-08-19T03:07:04;24.65;;;21.75;;
10823;SDS011;39116;59.332;18.034;2022-08-19T03:09:30;24.80;;;20.58;;
10823;SDS011;39116;59.332;18.034;2022-08-19T03:11:57;24.90;;;21.55;;
10823;SDS011;39116;59.332;18.034;2022-08-19T03:14:23;30.52;;;21.85;;
10823;SDS011;39116;59.332;18.034;2022-08-19T03:16:50;26.42;;;22.27;;
10823;SDS011;39116;59.332;18.034;2022-08-19T03:19:19;28.27;;;21.92;;
10823;SDS011;39116;59.332;18.034;2022-08-19T03:21:47;25.40;;;20.80;;
10823;SDS011;39116;59.332;18.034;2022-08-19T03:24:14;26.95;;;21.88;;
10823;SDS011;39116;59.332;18.034;2022-08-19T03:26:43;28.65;;;22.75;;
10823;SDS011;39116;59.332;18.034;2022-08-19T03:29:11;30.85;;;22.73;;
10823;SDS011;39116;59.332;18.034;2022-08-19T03:31:38;26.20;;;22.60;;
10823;SDS011;39116;59.332;18.034;2022-08-19T03:34:05;26.27;;;21.83;;
10823;SDS011;39116;59.332;18.034;2022-08-19T03:36:33;26.63;;;23.10;;
10823;SDS011;39116;59.332;18.034;2022-08-19T03:39:00;29.90;;;24.30;;
10823;SDS011;39116;59.332;18.034;2022-08-19T03:41:27;28.48;;;23.85;;
10823;SDS011;39116;59.332;18.034;2022-08-19T03:43:54;28.23;;;24.92;;
10823;SDS011;39116;59.332;18.034;2022-08-19T03:46:21;27.98;;;24.13;;
10823;SDS011;39116;59.332;18.034;2022-08-19T03:48:48;27.42;;;23.58;;
10823;SDS011;39116;59.332;18.034;2022-08-19T03:51:20;26.23;;;22.55;;
10823;SDS011;39116;59.332;18.034;2022-08-19T03:53:48;26.02;;;22.55;;
10823;SDS011;39116;59.332;18.034;2022-08-19T03:56:15;26.23;;;23.40;;
10823;SDS011;39116;59.332;18.034;2022-08-19T03:58:41;27.33;;;22.63;;
10823;SDS011;39116;59.332;18.034;2022-08-19T04:01:08;25.17;;;21.60;;
10823;SDS011;39116;59.332;18.034;2022-08-19T04:03:35;26.25;;;22.33;;
10823;SDS011;39116;59.332;18.034;2022-08-19T04:06:08;26.33;;;23.30;;
10823;SDS011;39116;59.332;18.034;2022-08-19T04:08:36;26.50;;;22.65;;
10823;SDS011;39116;59.332;18.034;2022-08-19T04:11:07;24.63;;;21.95;;
10823;SDS011;39116;59.332;18.034;2022-08-19T04:13:33;24.13;;;21.52;;
10823;SDS011;39116;59.332;18.034;2022-08-19T04:16:00;24.90;;;22.20;;
10823;SDS011;39116;59.332;18.034;2022-08-19T04:18:26;26.52;;;22.27;;
10823;SDS011;39116;59.332;18.034;2022-08-19T04:20:54;30.38;;;22.40;;
10823;SDS011;39116;59.332;18.034;2022-08-19T04:23:22;28.58;;;23.40;;
10823;SDS011;39116;59.332;18.034;2022-08-19T04:25:48;27.83;;;23.02;;
10823;SDS011;39116;59.332;18.034;2022-08-19T04:28:16;26.90;;;23.33;;
10823;SDS011;39116;59.332;18.034;2022-08-19T04:30:44;25.65;;;22.23;;
10823;SDS011;39116;59.332;18.034;2022-08-19T04:33:11;28.05;;;22.95;;
10823;SDS011;39116;59.332;18.034;2022-08-19T04:35:38;25.13;;;20.77;;
10823;SDS011;39116;59.332;18.034;2022-08-19T04:38:06;26.10;;;20.63;;
10823;SDS011;39116;59.332;18.034;2022-08-19T04:40:32;24.42;;;21.15;;
10823;SDS011;39116;59.332;18.034;2022-08-19T04:43:17;28.10;;;22.20;;
10823;SDS011;39116;59.332;18.034;2022-08-19T04:45:46;25.58;;;22.27;;
10823;SDS011;39116;59.332;18.034;2022-08-19T04:48:13;24.17;;;19.98;;
10823;SDS011;39116;59.332;18.034;2022-08-19T04:50:39;23.67;;;20.00;;
10823;SDS011;39116;59.332;18.034;2022-08-19T04:53:06;25.23;;;19.98;;
10823;SDS011;39116;59.332;18.034;2022-08-19T04:55:33;24.90;;;21.52;;
10823;SDS011;39116;59.332;18.034;2022-08-19T04:58:00;22.88;;;20.27;;
10823;SDS011;39116;59.332;18.034;2022-08-19T05:00:28;24.38;;;21.75;;
10823;SDS011;39116;59.332;18.034;2022-08-19T05:02:55;23.80;;;20.77;;
10823;SDS011;39116;59.332;18.034;2022-08-19T05:05:21;23.60;;;20.48;;
10823;SDS011;39116;59.332;18.034;2022-08-19T05:07:48;23.67;;;21.08;;
10823;SDS011;39116;59.332;18.034;2022-08-19T05:10:14;23.33;;;20.20;;
10823;SDS011;39116;59.332;18.034;2022-08-19T05:12:40;21.90;;;19.70;;
10823;SDS011;39116;59.332;18.034;2022-08-19T05:15:07;20.65;;;18.42;;
10823;SDS011;39116;59.332;18.034;2022-08-19T05:17:35;20.55;;;16.98;;
10823;SDS011;39116;59.332;18.034;2022-08-19T05:20:02;22.35;;;18.65;;
10823;SDS011;39116;59.332;18.034;2022-08-19T05:22:46;22.55;;;18.70;;
10823;SDS011;39116;59.332;18.034;2022-08-19T05:25:14;25.27;;;19.90;;
10823;SDS011;39116;59.332;18.034;2022-08-19T05:27:43;22.48;;;19.70;;
10823;SDS011;39116;59.332;18.034;2022-08-19T05:30:10;23.60;;;19.98;;
10823;SDS011;39116;59.332;18.034;2022-08-19T05:32:38;22.20;;;19.55;;
10823;SDS011;39116;59.332;18.034;2022-08-19T05:35:05;23.50;;;19.73;;
10823;SDS011;39116;59.332;18.034;2022-08-19T05:37:32;22.65;;;18.63;;
10823;SDS011;39116;59.332;18.034;2022-08-19T05:39:58;20.40;;;16.95;;
10823;SDS011;39116;59.332;18.034;2022-08-19T05:42:25;23.27;;;18.85;;
10823;SDS011;39116;59.332;18.034;2022-08-19T05:44:51;21.85;;;17.98;;
10823;SDS011;39116;59.332;18.034;2022-08-19T05:47:18;21.10;;;17.25;;
10823;SDS011;39116;59.332;18.034;2022-08-19T05:49:46;19.77;;;17.52;;
10823;SDS011;39116;59.332;18.034;2022-08-19T05:52:15;19.63;;;16.92;;
10823;SDS011;39116;59.332;18.034;2022-08-19T05:54:41;19.48;;;17.27;;
10823;SDS011;39116;59.332;18.034;2022-08-19T05:57:09;21.73;;;16.42;;
10823;SDS011;39116;59.332;18.034;2022-08-19T05:59:36;26.80;;;19.25;;
10823;SDS011;39116;59.332;18.034;2022-08-19T06:02:03;21.23;;;18.27;;
10823;SDS011;39116;59.332;18.034;2022-08-19T06:04:29;22.45;;;17.98;;
10823;SDS011;39116;59.332;18.034;2022-08-19T06:06:57;23.55;;;18.65;;
10823;SDS011;39116;59.332;18.034;2022-08-19T06:09:24;19.17;;;16.67;;
10823;SDS011;39116;59.332;18.034;2022-08-19T06:11:50;19.02;;;16.42;;
10823;SDS011;39116;59.332;18.034;2022-08-19T06:14:20;19.80;;;17.13;;
10823;SDS011;39116;59.332;18.034;2022-08-19T06:16:47;19.38;;;17.08;;
10823;SDS011;39116;59.332;18.034;2022-08-19T06:19:16;21.58;;;17.25;;
10823;SDS011;39116;59.332;18.034;2022-08-19T06:21:44;18.27;;;16.17;;
10823;SDS011;39116;59.332;18.034;2022-08-19T06:24:14;17.20;;;15.50;;
10823;SDS011;39116;59.332;18.034;2022-08-19T06:26:42;18.30;;;15.00;;
10823;SDS011;39116;59.332;18.034;2022-08-19T06:29:09;16.42;;;14.82;;
10823;SDS011;39116;59.332;18.034;2022-08-19T06:31:36;17.15;;;14.90;;
10823;SDS011;39116;59.332;18.034;2022-08-19T06:34:04;17.58;;;14.63;;
10823;SDS011;39116;59.332;18.034;2022-08-19T06:36:31;15.77;;;13.57;;
10823;SDS011;39116;59.332;18.034;2022-08-19T06:38:59;18.08;;;13.25;;
10823;SDS011;39116;59.332;18.034;2022-08-19T06:41:27;15.75;;;13.45;;
10823;SDS011;39116;59.332;18.034;2022-08-19T06:43:54;17.85;;;13.60;;
10823;SDS011;39116;59.332;18.034;2022-08-19T06:46:21;15.10;;;13.60;;
10823;SDS011;39116;59.332;18.034;2022-08-19T06:48:48;15.63;;;13.93;;
10823;SDS011;39116;59.332;18.034;2022-08-19T06:51:15;14.50;;;13.00;;
10823;SDS011;39116;59.332;18.034;2022-08-19T06:53:43;16.58;;;13.07;;
10823;SDS011;39116;59.332;18.034;2022-08-19T06:56:12;16.88;;;13.52;;
10823;SDS011;39116;59.332;18.034;2022-08-19T06:58:40;16.25;;;12.63;;
10823;SDS011;39116;59.332;18.034;2022-08-19T07:01:06;14.73;;;12.93;;
10823;SDS011;39116;59.332;18.034;2022-08-19T07:03:33;13.52;;;12.00;;
10823;SDS011;39116;59.332;18.034;2022-08-19T07:06:02;14.82;;;12.70;;
10823;SDS011;39116;59.332;18.034;2022-08-19T07:08:28;16.85;;;11.27;;
10823;SDS011;39116;59.332;18.034;2022-08-19T07:10:55;12.32;;;10.98;;
10823;SDS011;39116;59.332;18.034;2022-08-19T07:13:21;15.88;;;13.38;;
10823;SDS011;39116;59.332;18.034;2022-08-19T07:15:49;15.27;;;11.57;;
10823;SDS011;39116;59.332;18.034;2022-08-19T07:18:16;16.00;;;11.43;;
10823;SDS011;39116;59.332;18.034;2022-08-19T07:20:43;13.88;;;11.15;;
10823;SDS011;39116;59.332;18.034;2022-08-19T07:23:09;11.98;;;10.57;;
10823;SDS011;39116;59.332;18.034;2022-08-19T07:25:36;14.73;;;10.35;;
10823;SDS011;39116;59.332;18.034;2022-08-19T07:28:02;11.27;;;9.60;;
10823;SDS011;39116;59.332;18.034;2022-08-19T07:30:29;14.07;;;9.75;;
10823;SDS011;39116;59.332;18.034;2022-08-19T07:32:57;15.23;;;9.80;;
10823;SDS011;39116;59.332;18.034;2022-08-19T07:35:23;12.00;;;9.55;;
10823;SDS011;39116;59.332;18.034;2022-08-19T07:37:50;17.30;;;9.32;;
10823;SDS011;39116;59.332;18.034;2022-08-19T07:40:17;10.63;;;9.02;;
10823;SDS011;39116;59.332;18.034;2022-08-19T07:42:44;12.43;;;8.70;;
10823;SDS011;39116;59.332;18.034;2022-08-19T07:45:11;15.18;;;8.70;;
10823;SDS011;39116;59.332;18.034;2022-08-19T07:47:37;14.25;;;8.80;;
10823;SDS011;39116;59.332;18.034;2022-08-19T07:50:07;14.43;;;9.05;;
10823;SDS011;39116;59.332;18.034;2022-08-19T07:52:34;12.65;;;9.18;;
10823;SDS011;39116;59.332;18.034;2022-08-19T07:55:01;11.93;;;8.68;;
10823;SDS011;39116;59.332;18.034;2022-08-19T07:57:29;9.82;;;8.80;;
10823;SDS011;39116;59.332;18.034;2022-08-19T07:59:55;11.95;;;8.15;;
10823;SDS011;39116;59.332;18.034;2022-08-19T08:02:21;9.88;;;8.57;;
10823;SDS011;39116;59.332;18.034;2022-08-19T08:04:48;13.88;;;8.40;;
10823;SDS011;39116;59.332;18.034;2022-08-19T08:07:33;11.23;;;9.02;;
10823;SDS011;39116;59.332;18.034;2022-08-19T08:10:17;9.88;;;8.25;;
10823;SDS011;39116;59.332;18.034;2022-08-19T08:12:43;12.02;;;8.05;;
10823;SDS011;39116;59.332;18.034;2022-08-19T08:15:11;10.20;;;8.55;;
10823;SDS011;39116;59.332;18.034;2022-08-19T08:17:39;10.23;;;8.30;;
10823;SDS011;39116;59.332;18.034;2022-08-19T08:20:06;10.90;;;7.95;;
10823;SDS011;39116;59.332;18.034;2022-08-19T08:22:34;10.88;;;7.93;;
10823;SDS011;39116;59.332;18.034;2022-08-19T08:25:20;10.85;;;8.02;;
10823;SDS011;39116;59.332;18.034;2022-08-19T08:27:48;12.15;;;7.88;;
10823;SDS011;39116;59.332;18.034;2022-08-19T08:30:15;13.85;;;7.80;;
10823;SDS011;39116;59.332;18.034;2022-08-19T08:32:42;13.02;;;7.10;;
10823;SDS011;39116;59.332;18.034;2022-08-19T08:35:10;13.63;;;7.30;;
10823;SDS011;39116;59.332;18.034;2022-08-19T08:37:38;9.63;;;6.90;;
10823;SDS011;39116;59.332;18.034;2022-08-19T08:40:05;10.00;;;6.50;;
10823;SDS011;39116;59.332;18.034;2022-08-19T08:42:34;13.55;;;7.35;;
10823;SDS011;39116;59.332;18.034;2022-08-19T08:45:02;9.70;;;6.63;;
10823;SDS011;39116;59.332;18.034;2022-08-19T08:47:30;8.82;;;6.90;;
10823;SDS011;39116;59.332;18.034;2022-08-19T08:50:01;11.35;;;6.70;;
10823;SDS011;39116;59.332;18.034;2022-08-19T08:52:30;10.30;;;7.13;;
10823;SDS011;39116;59.332;18.034;2022-08-19T08:55:03;9.38;;;6.78;;
10823;SDS011;39116;59.332;18.034;2022-08-19T08:57:43;11.18;;;6.63;;
10823;SDS011;39116;59.332;18.034;2022-08-19T09:00:12;7.32;;;6.38;;
10823;SDS011;39116;59.332;18.034;2022-08-19T09:02:41;10.20;;;7.05;;
10823;SDS011;39116;59.332;18.034;2022-08-19T09:05:08;7.95;;;6.68;;
10823;SDS011;39116;59.332;18.034;2022-08-19T09:07:37;9.50;;;6.90;;
10823;SDS011;39116;59.332;18.034;2022-08-19T09:10:10;8.57;;;6.50;;
10823;SDS011;39116;59.332;18.034;2022-08-19T09:12:43;12.68;;;7.20;;
10823;SDS011;39116;59.332;18.034;2022-08-19T09:15:12;8.27;;;6.30;;
10823;SDS011;39116;59.332;18.034;2022-08-19T09:17:38;14.48;;;6.57;;
10823;SDS011;39116;59.332;18.034;2022-08-19T09:20:06;8.13;;;6.10;;
10823;SDS011;39116;59.332;18.034;2022-08-19T09:22:33;9.23;;;6.38;;
10823;SDS011;39116;59.332;18.034;2022-08-19T09:25:00;12.18;;;6.80;;
10823;SDS011;39116;59.332;18.034;2022-08-19T09:27:28;12.25;;;6.13;;
10823;SDS011;39116;59.332;18.034;2022-08-19T09:29:55;8.63;;;6.45;;
10823;SDS011;39116;59.332;18.034;2022-08-19T09:32:21;12.40;;;6.50;;
10823;SDS011;39116;59.332;18.034;2022-08-19T09:34:48;8.32;;;6.10;;
10823;SDS011;39116;59.332;18.034;2022-08-19T09:37:15;10.77;;;6.55;;
10823;SDS011;39116;59.332;18.034;2022-08-19T09:39:41;8.00;;;6.40;;
10823;SDS011;39116;59.332;18.034;2022-08-19T09:42:08;7.90;;;6.18;;
10823;SDS011;39116;59.332;18.034;2022-08-19T09:44:39;11.73;;;6.28;;
10823;SDS011;39116;59.332;18.034;2022-08-19T09:47:05;12.02;;;6.55;;
10823;SDS011;39116;59.332;18.034;2022-08-19T09:49:32;8.10;;;6.22;;
10823;SDS011;39116;59.332;18.034;2022-08-19T09:51:59;10.68;;;6.25;;
10823;SDS011;39116;59.332;18.034;2022-08-19T09:54:25;11.27;;;6.55;;
10823;SDS011;39116;59.332;18.034;2022-08-19T09:56:52;11.35;;;6.80;;
10823;SDS011;39116;59.332;18.034;2022-08-19T09:59:19;11.32;;;6.75;;
10823;SDS011;39116;59.332;18.034;2022-08-19T10:01:47;10.00;;;7.88;;
10823;SDS011;39116;59.332;18.034;2022-08-19T10:04:13;10.52;;;6.30;;
10823;SDS011;39116;59.332;18.034;2022-08-19T10:06:40;8.25;;;5.68;;
10823;SDS011;39116;59.332;18.034;2022-08-19T10:09:07;10.55;;;5.65;;
10823;SDS011;39116;59.332;18.034;2022-08-19T10:11:35;8.93;;;5.97;;
10823;SDS011;39116;59.332;18.034;2022-08-19T10:14:04;7.13;;;5.80;;
10823;SDS011;39116;59.332;18.034;2022-08-19T10:16:31;10.10;;;6.05;;
10823;SDS011;39116;59.332;18.034;2022-08-19T10:18:59;6.68;;;5.97;;
10823;SDS011;39116;59.332;18.034;2022-08-19T10:21:27;10.05;;;6.28;;
10823;SDS011;39116;59.332;18.034;2022-08-19T10:23:54;8.00;;;5.75;;
10823;SDS011;39116;59.332;18.034;2022-08-19T10:26:22;8.30;;;5.60;;
10823;SDS011;39116;59.332;18.034;2022-08-19T10:28:49;9.52;;;6.10;;
10823;SDS011;39116;59.332;18.034;2022-08-19T10:31:17;6.30;;;5.70;;
10823;SDS011;39116;59.332;18.034;2022-08-19T10:33:44;9.43;;;5.97;;
10823;SDS011;39116;59.332;18.034;2022-08-19T10:36:13;11.18;;;6.30;;
10823;SDS011;39116;59.332;18.034;2022-08-19T10:38:42;7.63;;;6.10;;
10823;SDS011;39116;59.332;18.034;2022-08-19T10:41:10;10.85;;;6.15;;
10823;SDS011;39116;59.332;18.034;2022-08-19T10:43:37;7.43;;;6.38;;
10823;SDS011;39116;59.332;18.034;2022-08-19T10:46:04;8.05;;;5.60;;
10823;SDS011;39116;59.332;18.034;2022-08-19T10:48:31;9.05;;;6.30;;
10823;SDS011;39116;59.332;18.034;2022-08-19T10:50:58;8.35;;;5.63;;
10823;SDS011;39116;59.332;18.034;2022-08-19T10:53:39;7.72;;;4.65;;
10823;SDS011;39116;59.332;18.034;2022-08-19T10:56:06;10.13;;;5.95;;
10823;SDS011;39116;59.332;18.034;2022-08-19T10:58:50;9.30;;;5.95;;
10823;SDS011;39116;59.332;18.034;2022-08-19T11:01:16;9.07;;;5.68;;
10823;SDS011;39116;59.332;18.034;2022-08-19T11:03:43;9.05;;;5.40;;
10823;SDS011;39116;59.332;18.034;2022-08-19T11:06:10;10.32;;;5.30;;
10823;SDS011;39116;59.332;18.034;2022-08-19T11:08:36;7.43;;;5.07;;
10823;SDS011;39116;59.332;18.034;2022-08-19T11:11:05;6.18;;;4.88;;
10823;SDS011;39116;59.332;18.034;2022-08-19T11:13:33;6.57;;;5.22;;
10823;SDS011;39116;59.332;18.034;2022-08-19T11:16:03;7.43;;;5.00;;
10823;SDS011;39116;59.332;18.034;2022-08-19T11:18:31;8.30;;;4.82;;
10823;SDS011;39116;59.332;18.034;2022-08-19T11:21:04;8.45;;;5.10;;
10823;SDS011;39116;59.332;18.034;2022-08-19T11:23:31;7.43;;;5.10;;
10823;SDS011;39116;59.332;18.034;2022-08-19T11:25:58;6.30;;;4.90;;
10823;SDS011;39116;59.332;18.034;2022-08-19T11:28:26;6.35;;;4.35;;
10823;SDS011;39116;59.332;18.034;2022-08-19T11:30:52;6.50;;;4.97;;
10823;SDS011;39116;59.332;18.034;2022-08-19T11:33:18;8.60;;;5.25;;
10823;SDS011;39116;59.332;18.034;2022-08-19T11:35:45;8.13;;;5.43;;
10823;SDS011;39116;59.332;18.034;2022-08-19T11:38:11;7.15;;;4.65;;
10823;SDS011;39116;59.332;18.034;2022-08-19T11:40:39;7.22;;;4.95;;
10823;SDS011;39116;59.332;18.034;2022-08-19T11:43:07;12.05;;;5.07;;
10823;SDS011;39116;59.332;18.034;2022-08-19T11:45:35;6.45;;;5.22;;
10823;SDS011;39116;59.332;18.034;2022-08-19T11:48:02;5.53;;;5.03;;
10823;SDS011;39116;59.332;18.034;2022-08-19T11:50:28;5.95;;;4.80;;
10823;SDS011;39116;59.332;18.034;2022-08-19T11:52:55;6.57;;;5.25;;
10823;SDS011;39116;59.332;18.034;2022-08-19T11:55:22;13.68;;;9.80;;
10823;SDS011;39116;59.332;18.034;2022-08-19T11:57:49;8.45;;;5.43;;
10823;SDS011;39116;59.332;18.034;2022-08-19T12:00:15;6.90;;;5.00;;
10823;SDS011;39116;59.332;18.034;2022-08-19T12:02:43;7.30;;;4.97;;
10823;SDS011;39116;59.332;18.034;2022-08-19T12:05:10;7.97;;;4.88;;
10823;SDS011;39116;59.332;18.034;2022-08-19T12:07:36;7.50;;;4.90;;
10823;SDS011;39116;59.332;18.034;2022-08-19T12:10:03;8.05;;;4.93;;
10823;SDS011;39116;59.332;18.034;2022-08-19T12:12:29;10.27;;;4.65;;
10823;SDS011;39116;59.332;18.034;2022-08-19T12:14:55;7.18;;;4.32;;
10823;SDS011;39116;59.332;18.034;2022-08-19T12:17:23;7.18;;;5.15;;
10823;SDS011;39116;59.332;18.034;2022-08-19T12:19:51;6.07;;;5.00;;
10823;SDS011;39116;59.332;18.034;2022-08-19T12:22:18;11.02;;;5.45;;
10823;SDS011;39116;59.332;18.034;2022-08-19T12:24:45;7.72;;;5.10;;
10823;SDS011;39116;59.332;18.034;2022-08-19T12:27:12;10.18;;;4.82;;
10823;SDS011;39116;59.332;18.034;2022-08-19T12:29:39;7.95;;;4.85;;
10823;SDS011;39116;59.332;18.034;2022-08-19T12:32:06;7.80;;;4.72;;
10823;SDS011;39116;59.332;18.034;2022-08-19T12:34:33;5.57;;;5.05;;
10823;SDS011;39116;59.332;18.034;2022-08-19T12:37:04;6.40;;;4.68;;
10823;SDS011;39116;59.332;18.034;2022-08-19T12:39:33;7.07;;;4.82;;
10823;SDS011;39116;59.332;18.034;2022-08-19T12:42:00;9.57;;;4.80;;
10823;SDS011;39116;59.332;18.034;2022-08-19T12:44:26;6.13;;;4.47;;
10823;SDS011;39116;59.332;18.034;2022-08-19T12:46:53;5.15;;;4.50;;
10823;SDS011;39116;59.332;18.034;2022-08-19T12:49:19;6.97;;;4.45;;
10823;SDS011;39116;59.332;18.034;2022-08-19T12:51:45;7.90;;;5.10;;
10823;SDS011;39116;59.332;18.034;2022-08-19T12:54:13;6.07;;;4.75;;
10823;SDS011;39116;59.332;18.034;2022-08-19T12:56:40;9.70;;;4.55;;
10823;SDS011;39116;59.332;18.034;2022-08-19T12:59:07;5.00;;;4.60;;
10823;SDS011;39116;59.332;18.034;2022-08-19T13:01:33;7.15;;;5.10;;
10823;SDS011;39116;59.332;18.034;2022-08-19T13:04:00;9.05;;;4.90;;
10823;SDS011;39116;59.332;18.034;2022-08-19T13:06:26;6.35;;;4.28;;
10823;SDS011;39116;59.332;18.034;2022-08-19T13:08:53;10.70;;;5.32;;
10823;SDS011;39116;59.332;18.034;2022-08-19T13:11:22;6.47;;;4.70;;
10823;SDS011;39116;59.332;18.034;2022-08-19T13:13:49;6.95;;;4.85;;
10823;SDS011;39116;59.332;18.034;2022-08-19T13:16:17;11.40;;;5.43;;
10823;SDS011;39116;59.332;18.034;2022-08-19T13:18:46;7.32;;;4.95;;
10823;SDS011;39116;59.332;18.034;2022-08-19T13:21:12;5.60;;;5.10;;
10823;SDS011;39116;59.332;18.034;2022-08-19T13:23:39;5.88;;;4.72;;
10823;SDS011;39116;59.332;18.034;2022-08-19T13:26:06;7.93;;;5.20;;
10823;SDS011;39116;59.332;18.034;2022-08-19T13:28:34;8.20;;;4.78;;
10823;SDS011;39116;59.332;18.034;2022-08-19T13:31:19;8.77;;;5.38;;
10823;SDS011;39116;59.332;18.034;2022-08-19T13:34:03;7.63;;;5.18;;
10823;SDS011;39116;59.332;18.034;2022-08-19T13:36:31;6.43;;;4.30;;
10823;SDS011;39116;59.332;18.034;2022-08-19T13:39:04;6.85;;;4.78;;
10823;SDS011;39116;59.332;18.034;2022-08-19T13:41:30;7.65;;;5.55;;
10823;SDS011;39116;59.332;18.034;2022-08-19T13:44:00;9.00;;;4.97;;
10823;SDS011;39116;59.332;18.034;2022-08-19T13:46:26;6.22;;;5.63;;
10823;SDS011;39116;59.332;18.034;2022-08-19T13:48:54;6.75;;;5.43;;
10823;SDS011;39116;59.332;18.034;2022-08-19T13:51:21;7.50;;;5.38;;
10823;SDS011;39116;59.332;18.034;2022-08-19T13:53:48;7.00;;;5.28;;
10823;SDS011;39116;59.332;18.034;2022-08-19T13:56:16;10.30;;;6.00;;
10823;SDS011;39116;59.332;18.034;2022-08-19T13:58:44;9.27;;;5.43;;
10823;SDS011;39116;59.332;18.034;2022-08-19T14:01:12;9.65;;;5.72;;
10823;SDS011;39116;59.332;18.034;2022-08-19T14:03:44;8.00;;;5.78;;
10823;SDS011;39116;59.332;18.034;2022-08-19T14:06:10;6.20;;;5.50;;
10823;SDS011;39116;59.332;18.034;2022-08-19T14:08:37;8.10;;;5.38;;
10823;SDS011;39116;59.332;18.034;2022-08-19T14:11:06;7.50;;;4.95;;
10823;SDS011;39116;59.332;18.034;2022-08-19T14:13:33;9.35;;;5.50;;
10823;SDS011;39116;59.332;18.034;2022-08-19T14:15:59;5.93;;;4.97;;
10823;SDS011;39116;59.332;18.034;2022-08-19T14:18:27;6.38;;;5.20;;
10823;SDS011;39116;59.332;18.034;2022-08-19T14:20:53;11.35;;;5.55;;
10823;SDS011;39116;59.332;18.034;2022-08-19T14:23:21;6.75;;;5.60;;